createdAt,value
2019-05-22T00:04:40.447Z,99051.13
2019-05-22T00:10:47.032Z,99055.97
2019-05-22T00:16:52.188Z,99062.10
2019-05-22T00:22:58.074Z,99058.19
2019-05-22T00:29:03.955Z,99056.39
2019-05-22T00:35:10.448Z,99063.69
2019-05-22T00:41:18.222Z,99073.37
2019-05-22T00:47:25.719Z,99075.22
2019-05-22T00:53:45.084Z,99074.57
2019-05-22T00:59:54.413Z,99075.11
2019-05-22T01:05:59.896Z,99072.06
2019-05-22T01:12:06.173Z,99078.48
2019-05-22T01:18:12.398Z,99079.98
2019-05-22T01:24:17.231Z,99083.35
2019-05-22T01:30:41.650Z,99082.09
2019-05-22T01:36:48.288Z,99081.14
2019-05-22T01:42:54.589Z,99085.75
2019-05-22T01:49:04.308Z,99084.03
2019-05-22T01:55:10.049Z,99094.61
2019-05-22T02:01:24.367Z,99102.08
2019-05-22T02:07:29.356Z,99113.67
2019-05-22T02:13:40.595Z,99122.14
2019-05-22T02:19:46.182Z,99120.36
2019-05-22T02:25:52.377Z,99119.30
2019-05-22T02:31:58.530Z,99121.70
2019-05-22T02:38:04.363Z,99120.41
2019-05-22T02:44:09.472Z,99121.47
2019-05-22T02:50:15.140Z,99124.40
2019-05-22T02:56:20.524Z,99126.86
2019-05-22T03:02:26.625Z,99130.76
2019-05-22T03:08:58.625Z,99128.83
2019-05-22T03:15:05.275Z,99141.53
2019-05-22T03:21:09.995Z,99148.18
2019-05-22T03:27:16.545Z,99152.70
2019-05-22T03:33:21.666Z,99159.10
2019-05-22T03:39:27.174Z,99159.09
2019-05-22T03:45:32.922Z,99168.14
2019-05-22T03:51:38.567Z,99169.47
2019-05-22T03:57:45.599Z,99174.62
2019-05-22T04:03:50.554Z,99183.09
2019-05-22T04:09:55.528Z,99187.34
2019-05-22T04:16:02.334Z,99187.47
2019-05-22T04:22:07.427Z,99184.22
2019-05-22T04:28:12.017Z,99197.36
2019-05-22T04:34:18.053Z,99202.02
2019-05-22T04:40:28.962Z,99202.31
2019-05-22T04:46:34.277Z,99222.30
2019-05-22T04:52:39.489Z,99218.86
2019-05-22T04:58:44.466Z,99227.29
2019-05-22T05:04:50.406Z,99231.52
2019-05-22T05:10:56.196Z,99235.97
2019-05-22T05:17:01.393Z,99237.48
2019-05-22T05:23:06.054Z,99239.88
2019-05-22T05:29:26.732Z,99242.47
2019-05-22T05:35:32.764Z,99243.30
2019-05-22T05:41:37.411Z,99254.94
2019-05-22T05:47:42.458Z,99262.11
2019-05-22T05:54:06.176Z,99273.95
2019-05-22T06:00:19.834Z,99273.30
2019-05-22T06:06:30.755Z,99272.13
2019-05-22T06:12:36.394Z,99274.92
2019-05-22T06:18:42.761Z,99272.19
2019-05-22T06:25:03.018Z,99282.02
2019-05-22T06:31:11.702Z,99281.70
2019-05-22T06:37:52.171Z,99287.69
2019-05-22T06:44:28.658Z,99302.20
2019-05-22T06:50:33.269Z,99310.90
2019-05-22T06:56:38.200Z,99307.69
2019-05-22T07:02:43.207Z,99316.88
2019-05-22T07:08:48.465Z,99319.39
2019-05-22T07:15:11.441Z,99327.08
2019-05-22T07:21:16.209Z,99326.64
2019-05-22T07:27:27.004Z,99337.25
2019-05-22T07:33:32.899Z,99351.61
2019-05-22T07:39:37.465Z,99343.98
2019-05-22T07:45:42.364Z,99351.27
2019-05-22T07:51:56.189Z,99352.69
2019-05-22T07:58:17.235Z,99354.17
2019-05-22T08:04:22.446Z,99347.95
2019-05-22T08:10:28.156Z,99366.58
2019-05-22T08:16:33.173Z,99372.42
2019-05-22T08:22:39.500Z,99367.97
2019-05-22T08:28:45.105Z,99377.00
2019-05-22T08:34:50.575Z,99380.33
2019-05-22T08:40:55.497Z,99383.59
2019-05-22T08:47:01.448Z,99393.11
2019-05-22T08:53:07.094Z,99409.03
2019-05-22T08:59:19.396Z,99413.67
2019-05-22T09:05:21.428Z,99417.45
2019-05-22T09:11:25.278Z,99422.95
2019-05-22T09:17:30.349Z,99431.44
2019-05-22T09:23:36.226Z,99434.51
2019-05-22T09:29:40.920Z,99434.66
2019-05-22T09:35:46.015Z,99438.62
2019-05-22T09:41:50.667Z,99444.16
2019-05-22T09:47:56.479Z,99448.71
2019-05-22T09:54:01.043Z,99452.49
2019-05-22T10:00:11.733Z,99455.00
2019-05-22T10:06:16.702Z,99470.36
2019-05-22T10:12:21.967Z,99476.45
2019-05-22T10:18:26.777Z,99486.00
2019-05-22T10:24:31.341Z,99486.75
2019-05-22T10:30:36.175Z,99492.95
2019-05-22T10:36:43.247Z,99503.59
2019-05-22T10:42:47.805Z,99502.25
2019-05-22T10:48:53.413Z,99509.39
2019-05-22T10:54:58.591Z,99515.16
2019-05-22T11:01:03.811Z,99529.66
2019-05-22T11:07:10.185Z,99524.64
2019-05-22T11:13:15.312Z,99528.59
2019-05-22T11:19:19.952Z,99534.63
2019-05-22T11:25:25.260Z,99534.22
2019-05-22T11:31:30.732Z,99535.78
2019-05-22T11:37:35.940Z,99536.80
2019-05-22T11:43:40.737Z,99531.50
2019-05-22T11:49:45.453Z,99532.16
2019-05-22T11:55:50.123Z,99534.43
2019-05-22T12:01:55.288Z,99539.70
2019-05-22T12:08:00.206Z,99548.94
2019-05-22T12:14:06.092Z,99552.75
2019-05-22T12:20:14.232Z,99562.80
2019-05-22T12:26:20.567Z,99567.42
2019-05-22T12:32:26.651Z,99569.93
2019-05-22T12:38:33.019Z,99562.50
2019-05-22T12:44:38.820Z,99568.24
2019-05-22T12:50:43.659Z,99568.97
2019-05-22T12:56:48.711Z,99563.32
2019-05-22T13:02:55.440Z,99574.77
2019-05-22T13:09:02.032Z,99576.00
2019-05-22T13:15:10.852Z,99566.59
2019-05-22T13:21:18.679Z,99570.62
2019-05-22T13:27:24.937Z,99572.67
2019-05-22T13:33:29.546Z,99568.70
2019-05-22T13:39:35.130Z,99577.41
2019-05-22T13:45:40.336Z,99574.42
2019-05-22T13:51:45.321Z,99585.84
2019-05-22T13:57:51.586Z,99584.27
2019-05-22T14:03:56.569Z,99580.97
2019-05-22T14:10:02.727Z,99578.12
2019-05-22T14:16:07.860Z,99580.32
2019-05-22T14:22:12.876Z,99577.84
2019-05-22T14:28:19.351Z,99577.88
2019-05-22T14:34:24.656Z,99575.78
2019-05-22T14:40:31.317Z,99582.48
2019-05-22T14:46:36.013Z,99578.00
2019-05-22T14:52:41.949Z,99584.88
2019-05-22T14:58:47.376Z,99573.69
2019-05-22T15:04:52.318Z,99580.78
2019-05-22T15:10:58.157Z,99566.95
2019-05-22T15:17:02.723Z,99564.19
2019-05-22T15:23:08.776Z,99571.45
2019-05-22T15:29:13.642Z,99574.19
2019-05-22T15:35:18.631Z,99571.87
2019-05-22T15:41:23.833Z,99565.71
2019-05-22T15:47:28.645Z,99564.25
2019-05-22T15:53:33.644Z,99567.27
2019-05-22T15:59:40.520Z,99561.73
2019-05-22T16:05:46.483Z,99560.53
2019-05-22T16:11:53.839Z,99569.54
2019-05-22T16:18:11.067Z,99568.84
2019-05-22T16:24:10.934Z,99575.96
2019-05-22T16:30:16.647Z,99570.01
2019-05-22T16:36:23.895Z,99565.25
2019-05-22T16:42:29.917Z,99568.94
2019-05-22T16:48:35.333Z,99569.11
2019-05-22T16:54:43.105Z,99567.53
2019-05-22T17:00:49.383Z,99566.56
2019-05-22T17:06:54.781Z,99559.76
2019-05-22T17:13:00.421Z,99555.03
2019-05-22T17:19:23.807Z,99560.13
2019-05-22T17:25:14.756Z,99553.59
2019-05-22T17:31:19.889Z,99554.13
2019-05-22T17:37:26.880Z,99562.57
2019-05-22T17:43:33.828Z,99558.64
2019-05-22T17:49:39.118Z,99555.08
2019-05-22T17:55:44.711Z,99557.23
2019-05-22T18:01:50.192Z,99552.49
2019-05-22T18:07:54.931Z,99551.66
2019-05-22T18:14:03.923Z,99551.76
2019-05-22T18:20:10.059Z,99553.48
2019-05-22T18:26:14.998Z,99547.80
2019-05-22T18:32:19.792Z,99555.35
2019-05-22T18:38:24.707Z,99556.19
2019-05-22T18:44:29.417Z,99555.25
2019-05-22T18:50:34.734Z,99560.77
2019-05-22T18:56:39.464Z,99559.53
2019-05-22T19:02:44.865Z,99565.61
2019-05-22T19:08:49.629Z,99567.17
2019-05-22T19:14:54.289Z,99572.14
2019-05-22T19:20:59.485Z,99576.30
2019-05-22T19:27:04.127Z,99572.38
2019-05-22T19:33:09.208Z,99579.00
2019-05-22T19:39:13.789Z,99583.70
2019-05-22T19:45:19.095Z,99586.80
2019-05-22T19:51:24.276Z,99589.58
2019-05-22T19:57:28.921Z,99593.06
2019-05-22T20:03:33.633Z,99605.34
2019-05-22T20:09:39.725Z,99603.82
2019-05-22T20:15:44.356Z,99605.16
2019-05-22T20:21:49.734Z,99605.52
2019-05-22T20:27:54.749Z,99608.23
2019-05-22T20:33:59.462Z,99617.67
2019-05-22T20:40:08.739Z,99616.33
2019-05-22T20:46:15.068Z,99614.54
2019-05-22T20:52:22.286Z,99619.84
2019-05-22T20:58:28.650Z,99617.09
2019-05-22T21:04:33.565Z,99626.09
2019-05-22T21:10:40.916Z,99619.50
2019-05-22T21:16:46.718Z,99622.53
2019-05-22T21:22:52.468Z,99632.39
2019-05-22T21:28:57.722Z,99642.02
2019-05-22T21:35:03.140Z,99632.95
2019-05-22T21:41:08.266Z,99637.03
2019-05-22T21:47:13.164Z,99644.13
2019-05-22T21:53:18.289Z,99638.78
2019-05-22T21:59:23.758Z,99637.88
2019-05-22T22:05:30.509Z,99645.33
2019-05-22T22:11:36.567Z,99649.11
2019-05-22T22:17:43.156Z,99650.37
2019-05-22T22:23:48.216Z,99652.46
2019-05-22T22:29:53.795Z,99658.56
2019-05-22T22:35:59.653Z,99662.11
2019-05-22T22:42:06.909Z,99653.86
2019-05-22T22:48:13.752Z,99663.45
2019-05-22T22:54:19.819Z,99664.05
2019-05-22T23:00:27.119Z,99665.03
2019-05-22T23:06:35.926Z,99667.11
2019-05-22T23:12:39.669Z,99663.25
2019-05-22T23:18:51.381Z,99669.71
2019-05-22T23:24:58.666Z,99677.26
2019-05-22T23:31:05.387Z,99679.10
2019-05-22T23:37:11.072Z,99683.23
2019-05-22T23:43:17.835Z,99676.81
2019-05-22T23:49:23.275Z,99683.67
2019-05-22T23:55:29.644Z,99680.69
